Time;durP1;ratioP1;P1;durP2;ratioP2;P2;SDS_P1;SDS_P2;PMS_P1;PMS_P2;Temp;Humidity;BMP_temperature;BMP_pressure;BME280_temperature;BME280_humidity;BME280_pressure;Samples;Min_cycle;Max_cycle;Signal;HPM_P1;HPM_P2
2022/02/02 00:00:23;;;;;;;17.30;5.67;;;;;;;;;;2086613;28;20203;-61
2022/02/02 00:01:36;;;;;;;19.73;5.73;;;;;;;;;;2087423;28;20167;-62
2022/02/02 00:02:45;;;;;;;25.07;5.60;;;;;;;;;;2087911;28;20258;-62
2022/02/02 00:03:51;;;;;;;20.53;5.63;;;;;;;;;;2088198;28;20184;-61
2022/02/02 00:04:57;;;;;;;22.10;6.00;;;;;;;;;;2082801;28;20171;-60
2022/02/02 00:06:16;;;;;;;19.30;5.13;;;;;;;;;;2087959;28;20199;-62
2022/02/02 00:07:36;;;;;;;18.20;5.73;;;;;;;;;;2084820;28;20643;-60
2022/02/02 00:08:49;;;;;;;15.97;5.83;;;;;;;;;;2086560;28;20647;-61
2022/02/02 00:10:00;;;;;;;14.20;5.47;;;;;;;;;;2089986;28;20193;-63
2022/02/02 00:11:43;;;;;;;17.13;5.57;;;;;;;;;;2085742;28;20203;-63
2022/02/02 00:12:42;;;;;;;19.03;5.00;;;;;;;;;;2088083;28;20179;-62
2022/02/02 00:14:57;;;;;;;20.23;5.60;;;;;;;;;;2092120;28;20163;-60
2022/02/02 00:16:18;;;;;;;16.37;6.00;;;;;;;;;;2094868;28;20209;-60
2022/02/02 00:17:32;;;;;;;14.47;4.70;;;;;;;;;;2087796;28;20225;-63
2022/02/02 00:20:11;;;;;;;15.23;5.40;;;;;;;;;;2083149;28;20152;-61
2022/02/02 00:21:24;;;;;;;16.27;5.07;;;;;;;;;;2088615;28;20182;-60
2022/02/02 00:22:32;;;;;;;11.90;5.37;;;;;;;;;;2082677;28;20595;-56
2022/02/02 00:23:40;;;;;;;11.67;4.67;;;;;;;;;;2087331;28;20789;-62
2022/02/02 00:25:49;;;;;;;15.37;6.47;;;;;;;;;;2088619;28;20190;-62
2022/02/02 00:26:54;;;;;;;17.77;5.60;;;;;;;;;;2086765;28;20179;-61
2022/02/02 00:27:57;;;;;;;22.77;5.43;;;;;;;;;;2085888;28;20255;-60
2022/02/02 00:29:07;;;;;;;19.10;5.10;;;;;;;;;;2084123;28;20273;-58
2022/02/02 00:30:10;;;;;;;18.90;5.70;;;;;;;;;;2086003;28;20240;-60
2022/02/02 00:31:17;;;;;;;18.00;4.93;;;;;;;;;;2086060;28;20640;-61
2022/02/02 00:33:45;;;;;;;21.60;4.93;;;;;;;;;;2084903;28;20274;-61
2022/02/02 00:34:46;;;;;;;19.97;6.47;;;;;;;;;;2086017;28;20168;-61
2022/02/02 00:35:57;;;;;;;21.37;5.67;;;;;;;;;;2086539;28;20639;-61
2022/02/02 00:36:58;;;;;;;16.43;5.83;;;;;;;;;;2085659;28;20211;-61
2022/02/02 00:37:58;;;;;;;14.00;4.80;;;;;;;;;;2083501;28;20588;-61
2022/02/02 00:38:58;;;;;;;16.67;6.23;;;;;;;;;;2085223;28;20165;-63
2022/02/02 00:39:59;;;;;;;19.67;5.53;;;;;;;;;;2087931;28;20187;-61
2022/02/02 00:40:59;;;;;;;19.97;5.70;;;;;;;;;;2085580;28;20175;-56
2022/02/02 00:42:00;;;;;;;16.33;5.23;;;;;;;;;;2084990;28;20175;-61
2022/02/02 00:43:00;;;;;;;16.80;5.80;;;;;;;;;;2086064;28;20204;-61
2022/02/02 00:44:02;;;;;;;19.00;5.57;;;;;;;;;;2084999;28;20215;-62
2022/02/02 00:45:03;;;;;;;13.93;5.87;;;;;;;;;;2085464;28;20191;-60
2022/02/02 00:46:03;;;;;;;20.37;5.63;;;;;;;;;;2088215;28;20199;-59
2022/02/02 00:47:03;;;;;;;18.70;5.90;;;;;;;;;;2084496;28;21633;-61
2022/02/02 00:48:04;;;;;;;18.60;5.80;;;;;;;;;;2086009;28;20656;-63
2022/02/02 00:49:05;;;;;;;15.70;5.37;;;;;;;;;;2087894;28;20179;-61
2022/02/02 00:50:06;;;;;;;20.60;6.33;;;;;;;;;;2088018;28;20662;-60
2022/02/02 00:51:07;;;;;;;22.17;6.70;;;;;;;;;;2085787;28;20229;-61
2022/02/02 00:52:07;;;;;;;26.27;7.53;;;;;;;;;;2084861;28;20261;-61
2022/02/02 00:53:10;;;;;;;19.93;6.37;;;;;;;;;;2085087;28;20172;-61
2022/02/02 00:54:11;;;;;;;22.73;7.23;;;;;;;;;;2084145;28;20206;-60
2022/02/02 00:55:11;;;;;;;19.93;8.10;;;;;;;;;;2086710;28;20168;-61
2022/02/02 00:56:11;;;;;;;21.33;7.80;;;;;;;;;;2084348;28;20688;-60
2022/02/02 00:57:12;;;;;;;21.13;7.33;;;;;;;;;;2086331;28;20172;-61
2022/02/02 00:58:13;;;;;;;21.63;8.03;;;;;;;;;;2083649;28;20555;-61
2022/02/02 00:59:13;;;;;;;22.67;8.00;;;;;;;;;;2083138;28;20202;-61
2022/02/02 01:00:14;;;;;;;20.93;8.43;;;;;;;;;;2086721;28;20164;-62
2022/02/02 01:01:14;;;;;;;27.20;8.87;;;;;;;;;;2095593;28;20209;-61
2022/02/02 01:02:14;;;;;;;22.67;7.27;;;;;;;;;;2085352;28;20168;-62
2022/02/02 01:03:15;;;;;;;25.90;7.63;;;;;;;;;;2085461;28;20623;-61
2022/02/02 01:04:16;;;;;;;23.93;7.60;;;;;;;;;;2092615;28;20176;-59
2022/02/02 01:05:16;;;;;;;27.67;8.93;;;;;;;;;;2095497;28;20179;-60
2022/02/02 01:06:19;;;;;;;20.67;7.07;;;;;;;;;;2087121;28;20294;-61
2022/02/02 01:08:51;;;;;;;25.07;7.37;;;;;;;;;;2084972;28;20504;-61
2022/02/02 01:10:08;;;;;;;21.50;8.07;;;;;;;;;;2083353;28;20196;-61
2022/02/02 01:11:31;;;;;;;20.33;6.97;;;;;;;;;;2084982;28;20159;-60
2022/02/02 01:17:44;;;;;;;20.00;6.77;;;;;;;;;;2084588;28;20239;-56
2022/02/02 01:20:01;;;;;;;24.97;7.03;;;;;;;;;;2085419;28;20163;-60
2022/02/02 01:21:04;;;;;;;20.80;6.20;;;;;;;;;;2087055;28;20211;-59
2022/02/02 01:28:18;;;;;;;18.23;6.80;;;;;;;;;;2088043;28;20170;-61
2022/02/02 01:29:18;;;;;;;25.43;6.77;;;;;;;;;;2084943;28;20167;-61
2022/02/02 01:30:18;;;;;;;15.50;6.43;;;;;;;;;;2084272;28;20211;-60
2022/02/02 01:31:19;;;;;;;25.33;6.70;;;;;;;;;;2086616;28;20187;-63
2022/02/02 01:32:19;;;;;;;18.47;6.73;;;;;;;;;;2084691;28;20263;-61
2022/02/02 01:33:19;;;;;;;21.27;6.30;;;;;;;;;;2087096;28;20251;-61
2022/02/02 01:34:20;;;;;;;19.33;6.03;;;;;;;;;;2085162;28;20278;-61
2022/02/02 01:35:20;;;;;;;21.20;6.07;;;;;;;;;;2086467;28;20226;-62
2022/02/02 01:36:20;;;;;;;18.77;5.47;;;;;;;;;;2084990;28;20224;-61
2022/02/02 01:37:21;;;;;;;17.77;5.80;;;;;;;;;;2084662;28;20202;-61
2022/02/02 01:38:23;;;;;;;21.60;5.60;;;;;;;;;;2088570;28;20246;-61
2022/02/02 01:39:27;;;;;;;19.13;5.83;;;;;;;;;;2085076;28;20560;-60
2022/02/02 01:40:35;;;;;;;22.37;6.90;;;;;;;;;;2086714;28;20271;-61
2022/02/02 01:41:39;;;;;;;24.83;6.83;;;;;;;;;;2086629;28;20580;-61
2022/02/02 01:42:47;;;;;;;21.10;6.07;;;;;;;;;;2086824;28;20183;-61
2022/02/02 01:44:03;;;;;;;16.60;5.43;;;;;;;;;;2085285;28;20172;-61
2022/02/02 01:45:27;;;;;;;24.10;5.73;;;;;;;;;;2085667;28;20183;-56
2022/02/02 01:46:31;;;;;;;22.30;5.97;;;;;;;;;;2089143;28;20195;-62
2022/02/02 01:47:40;;;;;;;22.70;5.87;;;;;;;;;;2087247;28;20253;-60
2022/02/02 01:48:48;;;;;;;12.90;5.17;;;;;;;;;;2086732;28;20624;-61
2022/02/02 01:52:40;;;;;;;17.50;5.23;;;;;;;;;;2087873;28;20182;-59
2022/02/02 01:55:46;;;;;;;18.43;5.80;;;;;;;;;;2085610;28;20230;-62
2022/02/02 01:56:46;;;;;;;14.90;5.20;;;;;;;;;;2089926;28;20738;-61
2022/02/02 01:58:05;;;;;;;21.73;5.60;;;;;;;;;;2087011;28;20188;-57
2022/02/02 02:00:09;;;;;;;20.20;5.13;;;;;;;;;;2085948;28;20236;-60
2022/02/02 02:01:16;;;;;;;19.07;5.80;;;;;;;;;;2086479;28;20176;-62
2022/02/02 02:02:16;;;;;;;14.50;4.83;;;;;;;;;;2089421;28;20175;-61
2022/02/02 02:03:21;;;;;;;11.97;5.73;;;;;;;;;;2084231;28;20160;-59
2022/02/02 02:04:21;;;;;;;15.87;5.77;;;;;;;;;;2086443;28;20255;-60
2022/02/02 02:05:22;;;;;;;11.43;4.37;;;;;;;;;;2086177;28;20207;-61
2022/02/02 02:06:22;;;;;;;16.27;5.47;;;;;;;;;;2084270;28;20207;-62
2022/02/02 02:07:22;;;;;;;14.07;4.77;;;;;;;;;;2088775;28;20174;-61
2022/02/02 02:08:23;;;;;;;15.60;5.13;;;;;;;;;;2086352;28;20644;-59
2022/02/02 02:09:25;;;;;;;18.27;5.50;;;;;;;;;;2089242;28;20159;-57
2022/02/02 02:10:26;;;;;;;10.33;5.30;;;;;;;;;;2084889;28;20184;-60
2022/02/02 02:11:26;;;;;;;16.43;5.93;;;;;;;;;;2088706;28;20188;-55
2022/02/02 02:12:59;;;;;;;19.47;4.93;;;;;;;;;;2084598;28;20215;-60
2022/02/02 02:15:04;;;;;;;20.10;5.70;;;;;;;;;;2085698;28;20176;-61
2022/02/02 02:16:04;;;;;;;18.07;5.23;;;;;;;;;;2088462;28;20250;-60
2022/02/02 02:17:05;;;;;;;17.23;5.10;;;;;;;;;;2090101;28;20194;-59
2022/02/02 02:18:05;;;;;;;15.87;5.63;;;;;;;;;;2086610;28;20263;-60
2022/02/02 02:19:05;;;;;;;17.53;5.03;;;;;;;;;;2087080;28;20164;-61
2022/02/02 02:20:06;;;;;;;14.97;5.27;;;;;;;;;;2087184;28;20190;-58
2022/02/02 02:21:11;;;;;;;16.53;5.60;;;;;;;;;;2088016;28;20171;-61
2022/02/02 02:22:14;;;;;;;15.47;4.93;;;;;;;;;;2087400;28;20289;-58
2022/02/02 02:23:14;;;;;;;15.27;5.13;;;;;;;;;;2087706;28;20186;-61
2022/02/02 02:24:14;;;;;;;21.07;5.53;;;;;;;;;;2082547;28;20184;-60
2022/02/02 02:25:18;;;;;;;14.60;4.87;;;;;;;;;;2075872;28;20181;-60
2022/02/02 02:26:23;;;;;;;12.53;5.33;;;;;;;;;;2089556;28;20200;-58
2022/02/02 02:27:25;;;;;;;17.43;4.67;;;;;;;;;;2094731;28;20198;-60
2022/02/02 02:28:44;;;;;;;12.53;4.17;;;;;;;;;;2097660;28;20178;-61
2022/02/02 02:31:15;;;;;;;24.53;5.97;;;;;;;;;;2086903;28;20187;-61
2022/02/02 02:56:20;;;;;;;16.42;4.78;;;;;;;;;;2085905;28;20196;-61
2022/02/02 02:57:24;;;;;;;13.03;5.23;;;;;;;;;;2084226;28;20202;-61
2022/02/02 02:59:46;;;;;;;15.33;4.73;;;;;;;;;;2088063;28;20190;-61
2022/02/02 03:58:39;;;;;;;12.00;5.00;;;;;;;;;;2066904;28;20174;-62
2022/02/02 04:00:57;;;;;;;15.03;5.57;;;;;;;;;;2069838;28;20184;-61
2022/02/02 04:06:22;;;;;;;13.97;5.07;;;;;;;;;;2093793;28;20252;-60
2022/02/02 04:07:31;;;;;;;12.37;4.77;;;;;;;;;;2093886;28;20628;-62
2022/02/02 04:08:35;;;;;;;17.00;5.67;;;;;;;;;;2088084;28;20170;-60
2022/02/02 04:09:38;;;;;;;15.73;4.13;;;;;;;;;;2084902;28;20567;-61
2022/02/02 04:10:39;;;;;;;19.67;4.73;;;;;;;;;;2084885;28;20188;-61
2022/02/02 04:11:50;;;;;;;13.90;4.60;;;;;;;;;;2085227;28;20290;-61
2022/02/02 04:12:59;;;;;;;15.07;4.80;;;;;;;;;;2084375;28;20229;-61
2022/02/02 04:54:45;;;;;;;16.33;5.33;;;;;;;;;;2093031;28;20175;-60
2022/02/02 04:56:01;;;;;;;15.87;5.40;;;;;;;;;;2091533;28;20176;-53
2022/02/02 04:57:37;;;;;;;13.43;5.00;;;;;;;;;;2092084;28;20172;-59
2022/02/02 05:05:55;;;;;;;13.20;5.00;;;;;;;;;;2092228;28;20510;-58
2022/02/02 05:07:12;;;;;;;19.63;5.03;;;;;;;;;;2090746;28;20168;-58
2022/02/02 05:10:53;;;;;;;16.23;5.10;;;;;;;;;;2089272;28;20183;-58
2022/02/02 05:24:39;;;;;;;15.50;5.60;;;;;;;;;;2087614;28;20164;-58
2022/02/02 05:43:59;;;;;;;12.77;4.73;;;;;;;;;;2046752;28;20226;-63
2022/02/02 05:45:26;;;;;;;15.60;4.67;;;;;;;;;;2063042;28;20216;-63
2022/02/02 05:50:42;;;;;;;13.17;5.27;;;;;;;;;;2061281;28;20197;-62
2022/02/02 05:51:49;;;;;;;16.93;5.10;;;;;;;;;;2064517;28;20280;-63
2022/02/02 05:52:50;;;;;;;10.97;4.80;;;;;;;;;;2063885;28;20161;-62
2022/02/02 05:53:51;;;;;;;11.37;4.40;;;;;;;;;;2063061;28;20561;-63
2022/02/02 05:54:51;;;;;;;16.13;4.27;;;;;;;;;;2080435;28;20180;-61
2022/02/02 05:55:52;;;;;;;19.23;5.17;;;;;;;;;;2081185;28;20653;-61
2022/02/02 05:56:53;;;;;;;15.73;5.20;;;;;;;;;;2080709;28;20197;-61
2022/02/02 05:57:56;;;;;;;18.33;5.73;;;;;;;;;;2072654;28;20179;-61
2022/02/02 05:58:57;;;;;;;14.60;5.73;;;;;;;;;;2077980;28;20164;-62
2022/02/02 05:59:58;;;;;;;13.47;4.77;;;;;;;;;;2080217;28;20172;-62
2022/02/02 06:00:59;;;;;;;9.07;4.83;;;;;;;;;;2079700;28;20671;-61
2022/02/02 06:02:01;;;;;;;13.57;5.23;;;;;;;;;;2070640;28;20551;-53
2022/02/02 06:03:02;;;;;;;16.67;5.50;;;;;;;;;;2072521;28;20181;-51
2022/02/02 06:04:05;;;;;;;13.63;4.77;;;;;;;;;;2080886;28;20184;-58
2022/02/02 06:05:07;;;;;;;16.77;5.03;;;;;;;;;;2080799;28;20184;-54
2022/02/02 06:06:11;;;;;;;16.33;4.70;;;;;;;;;;2079764;28;20180;-52
2022/02/02 06:07:12;;;;;;;18.27;5.70;;;;;;;;;;2080163;28;20259;-55
2022/02/02 06:08:14;;;;;;;14.27;4.73;;;;;;;;;;2080276;28;20180;-51
2022/02/02 06:09:14;;;;;;;11.70;4.70;;;;;;;;;;2080852;28;20194;-51
2022/02/02 06:10:17;;;;;;;17.33;5.27;;;;;;;;;;2080691;28;20589;-60
2022/02/02 06:11:18;;;;;;;15.43;5.27;;;;;;;;;;2078972;28;20548;-57
2022/02/02 06:12:20;;;;;;;16.20;5.00;;;;;;;;;;2080943;28;20233;-61
2022/02/02 06:13:21;;;;;;;18.07;5.07;;;;;;;;;;2081415;28;20549;-61
2022/02/02 06:14:24;;;;;;;16.67;4.73;;;;;;;;;;2080746;28;20215;-61
2022/02/02 06:15:24;;;;;;;11.27;5.00;;;;;;;;;;2080986;28;20173;-59
2022/02/02 06:16:25;;;;;;;15.27;5.13;;;;;;;;;;2078882;28;20278;-60
2022/02/02 06:17:27;;;;;;;20.93;5.80;;;;;;;;;;2078538;28;20550;-60
2022/02/02 06:18:28;;;;;;;19.60;5.73;;;;;;;;;;2080281;28;20226;-62
2022/02/02 06:19:28;;;;;;;19.67;5.33;;;;;;;;;;2080914;28;20169;-61
2022/02/02 06:20:29;;;;;;;12.93;5.60;;;;;;;;;;2081289;28;20684;-62
2022/02/02 06:21:30;;;;;;;16.00;5.00;;;;;;;;;;2077951;28;20192;-60
2022/02/02 06:22:31;;;;;;;14.43;5.20;;;;;;;;;;2081785;28;20183;-62
2022/02/02 06:23:41;;;;;;;11.67;4.47;;;;;;;;;;2079519;28;20188;-60
2022/02/02 06:24:46;;;;;;;18.43;5.43;;;;;;;;;;2080724;28;20267;-57
2022/02/02 06:25:47;;;;;;;19.57;5.93;;;;;;;;;;2079690;28;20262;-61
2022/02/02 06:26:47;;;;;;;18.87;4.93;;;;;;;;;;2081077;28;20192;-61
2022/02/02 06:28:17;;;;;;;20.87;6.40;;;;;;;;;;2080288;28;20268;-60
2022/02/02 06:29:17;;;;;;;21.23;5.43;;;;;;;;;;2060012;28;20326;-59
2022/02/02 06:30:18;;;;;;;20.30;5.73;;;;;;;;;;2081255;28;20172;-58
2022/02/02 06:31:20;;;;;;;25.77;6.33;;;;;;;;;;2080757;28;20754;-62
2022/02/02 06:32:24;;;;;;;19.00;5.27;;;;;;;;;;2081187;28;20210;-61
2022/02/02 06:33:27;;;;;;;17.70;5.70;;;;;;;;;;2079515;28;20188;-60
2022/02/02 06:34:28;;;;;;;23.60;6.90;;;;;;;;;;2080908;28;20165;-60
2022/02/02 06:35:28;;;;;;;15.20;6.03;;;;;;;;;;2081009;28;20180;-62
2022/02/02 06:36:30;;;;;;;15.20;5.10;;;;;;;;;;2071894;28;20200;-61
2022/02/02 06:37:30;;;;;;;16.63;5.07;;;;;;;;;;2072303;28;20188;-62
2022/02/02 06:38:31;;;;;;;23.67;5.90;;;;;;;;;;2080688;28;20180;-62
2022/02/02 06:39:32;;;;;;;18.73;5.80;;;;;;;;;;2082925;28;20204;-59
2022/02/02 06:40:33;;;;;;;18.70;5.83;;;;;;;;;;2083793;28;20179;-61
2022/02/02 06:41:34;;;;;;;22.83;6.63;;;;;;;;;;2083306;28;20712;-64
2022/02/02 06:42:38;;;;;;;20.40;6.20;;;;;;;;;;2082216;28;20182;-63
2022/02/02 06:43:38;;;;;;;20.77;6.03;;;;;;;;;;2079898;28;20184;-62
2022/02/02 06:44:42;;;;;;;21.23;6.57;;;;;;;;;;2082252;28;20199;-62
2022/02/02 06:45:42;;;;;;;21.90;6.03;;;;;;;;;;2080947;28;20180;-60
2022/02/02 06:46:45;;;;;;;28.27;7.80;;;;;;;;;;2081240;28;20196;-62
2022/02/02 06:47:46;;;;;;;20.77;6.87;;;;;;;;;;2081788;28;20605;-61
2022/02/02 06:48:46;;;;;;;24.07;7.00;;;;;;;;;;2081486;28;20168;-62
2022/02/02 06:49:49;;;;;;;19.17;6.50;;;;;;;;;;2081672;28;20173;-59
2022/02/02 06:50:58;;;;;;;25.67;6.23;;;;;;;;;;2070584;28;20173;-61
2022/02/02 06:52:09;;;;;;;19.23;5.70;;;;;;;;;;2080817;28;20204;-61
2022/02/02 06:54:30;;;;;;;18.77;6.33;;;;;;;;;;2082057;28;20196;-59
2022/02/02 06:55:40;;;;;;;22.00;5.97;;;;;;;;;;2080993;28;20223;-59
2022/02/02 06:56:51;;;;;;;28.63;6.63;;;;;;;;;;2080584;28;20200;-61
2022/02/02 06:58:19;;;;;;;18.87;6.03;;;;;;;;;;2080322;28;20198;-58
2022/02/02 06:59:43;;;;;;;22.70;6.27;;;;;;;;;;2082050;28;20169;-61
2022/02/02 07:01:54;;;;;;;20.13;6.40;;;;;;;;;;2075548;28;20173;-60
2022/02/02 07:04:53;;;;;;;20.07;5.40;;;;;;;;;;2096851;28;20179;-60
2022/02/02 07:06:11;;;;;;;17.00;6.53;;;;;;;;;;2081552;28;20176;-61
2022/02/02 07:07:25;;;;;;;19.90;5.60;;;;;;;;;;2082006;28;20559;-60
2022/02/02 07:08:48;;;;;;;25.43;5.83;;;;;;;;;;2095656;28;20558;-59
2022/02/02 07:11:26;;;;;;;25.00;5.87;;;;;;;;;;2079323;28;21350;-61
2022/02/02 07:12:44;;;;;;;11.83;5.40;;;;;;;;;;2078997;28;20668;-62
2022/02/02 07:17:18;;;;;;;18.60;5.73;;;;;;;;;;2081551;28;20192;-61
2022/02/02 07:20:39;;;;;;;19.80;5.80;;;;;;;;;;2081611;28;20172;-61
2022/02/02 07:27:39;;;;;;;17.53;6.07;;;;;;;;;;2079708;28;20264;-59
2022/02/02 07:29:20;;;;;;;15.20;5.03;;;;;;;;;;2079394;28;20176;-61
2022/02/02 07:30:17;;;;;;;19.17;5.70;;;;;;;;;;2072874;28;20195;-62
2022/02/02 07:32:43;;;;;;;16.47;5.23;;;;;;;;;;2084441;28;20211;-62
2022/02/02 07:33:45;;;;;;;20.30;5.03;;;;;;;;;;2081397;28;20161;-60
2022/02/02 07:34:59;;;;;;;15.23;4.93;;;;;;;;;;2078903;28;20172;-62
2022/02/02 07:36:11;;;;;;;20.80;5.57;;;;;;;;;;2078203;28;20167;-61
2022/02/02 07:37:16;;;;;;;14.87;5.17;;;;;;;;;;2080669;28;20220;-61
2022/02/02 07:38:17;;;;;;;31.40;6.77;;;;;;;;;;2080844;28;20172;-59
2022/02/02 07:39:19;;;;;;;14.83;5.03;;;;;;;;;;2080606;28;20180;-61
2022/02/02 07:40:20;;;;;;;18.30;6.00;;;;;;;;;;2078358;28;20183;-59
2022/02/02 07:41:31;;;;;;;18.27;6.10;;;;;;;;;;2080050;28;20222;-61
2022/02/02 07:42:32;;;;;;;21.03;5.57;;;;;;;;;;2073018;28;20180;-61
2022/02/02 07:43:35;;;;;;;14.60;5.23;;;;;;;;;;2079955;28;20267;-61
2022/02/02 07:44:37;;;;;;;15.83;6.13;;;;;;;;;;2080484;28;20221;-61
2022/02/02 07:45:38;;;;;;;13.50;4.53;;;;;;;;;;2078353;28;20636;-57
2022/02/02 07:46:42;;;;;;;19.27;5.47;;;;;;;;;;2078988;28;20235;-59
2022/02/02 07:47:44;;;;;;;17.20;5.40;;;;;;;;;;2079104;28;20203;-58
2022/02/02 07:48:47;;;;;;;17.77;5.77;;;;;;;;;;2078792;28;20168;-60
2022/02/02 07:49:52;;;;;;;21.17;6.23;;;;;;;;;;2080286;28;20632;-57
2022/02/02 07:50:53;;;;;;;15.13;4.87;;;;;;;;;;2080351;28;20200;-59
2022/02/02 07:51:54;;;;;;;17.23;5.30;;;;;;;;;;2080037;28;20330;-61
2022/02/02 07:52:57;;;;;;;17.33;5.20;;;;;;;;;;2079699;28;20172;-59
2022/02/02 07:53:59;;;;;;;14.17;5.67;;;;;;;;;;2079409;28;20204;-58
2022/02/02 07:55:02;;;;;;;18.67;5.63;;;;;;;;;;2077899;28;20262;-61
2022/02/02 07:56:09;;;;;;;12.43;4.87;;;;;;;;;;2079305;28;20318;-61
2022/02/02 07:57:14;;;;;;;15.73;5.47;;;;;;;;;;2072201;28;20235;-55
2022/02/02 07:58:20;;;;;;;15.10;4.93;;;;;;;;;;2080323;28;20179;-58
2022/02/02 08:00:24;;;;;;;15.13;5.37;;;;;;;;;;2080140;28;20180;-61
2022/02/02 08:01:24;;;;;;;17.47;6.87;;;;;;;;;;2079011;28;20192;-61
2022/02/02 08:03:52;;;;;;;16.60;5.70;;;;;;;;;;2080663;28;20177;-62
2022/02/02 08:04:52;;;;;;;25.50;5.87;;;;;;;;;;2080309;28;20212;-57
2022/02/02 08:05:53;;;;;;;21.07;5.93;;;;;;;;;;2079258;28;20191;-61
2022/02/02 08:06:55;;;;;;;21.37;6.37;;;;;;;;;;2080099;28;20210;-59
2022/02/02 08:08:56;;;;;;;13.60;5.23;;;;;;;;;;2079923;28;20671;-59
2022/02/02 08:10:16;;;;;;;18.43;5.13;;;;;;;;;;2080391;28;20216;-60
2022/02/02 08:11:26;;;;;;;22.23;6.23;;;;;;;;;;2080636;28;20175;-61
2022/02/02 08:12:30;;;;;;;13.17;5.80;;;;;;;;;;2079223;28;20172;-61
2022/02/02 08:13:40;;;;;;;21.90;6.53;;;;;;;;;;2080275;28;20196;-60
2022/02/02 08:14:41;;;;;;;17.60;6.17;;;;;;;;;;2080340;28;20176;-60
2022/02/02 08:15:42;;;;;;;18.73;5.07;;;;;;;;;;2080908;28;20176;-61
2022/02/02 08:16:43;;;;;;;14.47;4.87;;;;;;;;;;2080127;28;20207;-63
2022/02/02 08:17:44;;;;;;;14.07;5.17;;;;;;;;;;2080011;28;20169;-62
2022/02/02 08:18:47;;;;;;;18.77;7.33;;;;;;;;;;2080220;28;20180;-59
2022/02/02 08:19:48;;;;;;;20.13;6.23;;;;;;;;;;2078816;28;20178;-62
2022/02/02 08:20:48;;;;;;;16.63;5.63;;;;;;;;;;2080870;28;20187;-60
2022/02/02 08:21:49;;;;;;;21.83;5.70;;;;;;;;;;2080683;28;20184;-60
2022/02/02 08:22:49;;;;;;;14.93;5.47;;;;;;;;;;2080960;28;20311;-61
2022/02/02 08:23:50;;;;;;;10.53;4.17;;;;;;;;;;2082955;28;20596;-62
2022/02/02 08:24:51;;;;;;;11.20;4.73;;;;;;;;;;2082356;28;20168;-60
2022/02/02 08:25:51;;;;;;;18.60;5.00;;;;;;;;;;2082329;28;20204;-57
2022/02/02 08:26:51;;;;;;;11.43;4.80;;;;;;;;;;2082832;28;20774;-59
2022/02/02 08:27:53;;;;;;;14.40;6.07;;;;;;;;;;2080784;28;20199;-60
2022/02/02 08:28:57;;;;;;;26.27;5.03;;;;;;;;;;2082796;28;20181;-57
2022/02/02 08:29:59;;;;;;;16.00;5.70;;;;;;;;;;2082729;28;20172;-61
2022/02/02 08:31:00;;;;;;;14.33;5.17;;;;;;;;;;2080262;28;20200;-60
2022/02/02 08:32:04;;;;;;;13.67;5.60;;;;;;;;;;2082502;28;20203;-60
2022/02/02 08:33:06;;;;;;;17.67;5.53;;;;;;;;;;2082169;28;20171;-58
2022/02/02 08:34:11;;;;;;;14.97;5.17;;;;;;;;;;2082104;28;20194;-60
2022/02/02 08:35:12;;;;;;;14.03;5.20;;;;;;;;;;2081799;28;20263;-60
2022/02/02 08:36:15;;;;;;;13.53;5.73;;;;;;;;;;2081889;28;20868;-60
2022/02/02 08:37:16;;;;;;;13.70;4.87;;;;;;;;;;2082308;28;20523;-59
2022/02/02 08:38:37;;;;;;;22.60;5.67;;;;;;;;;;2082279;28;20168;-61
2022/02/02 08:40:07;;;;;;;26.27;5.50;;;;;;;;;;2082049;28;20256;-59
2022/02/02 08:41:24;;;;;;;15.40;5.30;;;;;;;;;;2081096;28;20617;-61
2022/02/02 08:42:29;;;;;;;17.00;6.33;;;;;;;;;;2080536;28;20188;-60
2022/02/02 08:43:37;;;;;;;18.70;5.90;;;;;;;;;;2081775;28;20171;-58
2022/02/02 08:45:23;;;;;;;12.07;5.47;;;;;;;;;;2082044;28;20202;-58
2022/02/02 08:46:06;;;;;;;16.47;5.40;;;;;;;;;;2067287;28;20727;-61
2022/02/02 08:47:09;;;;;;;17.60;5.00;;;;;;;;;;2082517;28;20178;-59
2022/02/02 08:48:13;;;;;;;15.50;5.67;;;;;;;;;;2082528;28;20175;-59
2022/02/02 08:49:15;;;;;;;14.75;5.40;;;;;;;;;;2082067;28;20172;-61
2022/02/02 08:50:15;;;;;;;24.63;6.03;;;;;;;;;;2082404;28;20241;-60
2022/02/02 08:51:18;;;;;;;13.27;4.80;;;;;;;;;;2082899;28;20577;-60
2022/02/02 08:52:19;;;;;;;17.40;5.55;;;;;;;;;;2082726;28;20222;-58
2022/02/02 08:55:46;;;;;;;18.80;5.60;;;;;;;;;;2082811;28;20172;-62
2022/02/02 08:57:57;;;;;;;12.93;4.70;;;;;;;;;;2082406;28;20546;-61
2022/02/02 08:59:09;;;;;;;13.40;5.30;;;;;;;;;;2080787;28;20185;-60
2022/02/02 09:00:12;;;;;;;19.53;5.93;;;;;;;;;;2082569;28;20168;-60
2022/02/02 09:01:22;;;;;;;14.00;5.17;;;;;;;;;;2082503;28;20184;-58
2022/02/02 09:02:27;;;;;;;15.60;5.57;;;;;;;;;;2083983;28;20164;-61
2022/02/02 09:06:06;;;;;;;19.00;5.67;;;;;;;;;;2081633;28;20509;-62
2022/02/02 09:07:08;;;;;;;19.37;6.23;;;;;;;;;;2083055;28;20180;-60
2022/02/02 09:08:09;;;;;;;21.17;6.43;;;;;;;;;;2083662;28;20191;-63
2022/02/02 09:09:19;;;;;;;20.17;6.13;;;;;;;;;;2085134;28;20641;-59
2022/02/02 09:19:59;;;;;;;21.53;5.97;;;;;;;;;;2087681;28;20167;-62
2022/02/02 09:24:26;;;;;;;14.53;5.17;;;;;;;;;;2080507;28;20255;-62
2022/02/02 09:32:09;;;;;;;17.73;5.47;;;;;;;;;;2080606;28;20668;-59
2022/02/02 09:34:26;;;;;;;15.23;5.13;;;;;;;;;;2081500;28;20176;-60
2022/02/02 09:35:26;;;;;;;17.03;5.13;;;;;;;;;;2082130;28;20168;-59
2022/02/02 09:36:31;;;;;;;14.33;5.33;;;;;;;;;;2081140;28;20208;-61
2022/02/02 09:37:32;;;;;;;15.27;4.67;;;;;;;;;;2081080;28;20168;-57
2022/02/02 09:38:32;;;;;;;18.27;5.57;;;;;;;;;;2081879;28;20227;-56
2022/02/02 09:39:40;;;;;;;16.42;5.88;;;;;;;;;;2082114;28;20214;-59
2022/02/02 09:41:16;;;;;;;18.08;5.28;;;;;;;;;;2082041;28;20199;-59
2022/02/02 09:42:12;;;;;;;14.38;5.00;;;;;;;;;;2079304;28;20184;-61
2022/02/02 09:43:18;;;;;;;17.87;5.97;;;;;;;;;;2082213;28;20167;-62
2022/02/02 09:44:24;;;;;;;20.20;5.70;;;;;;;;;;2081621;28;20829;-61
2022/02/02 09:45:26;;;;;;;20.10;5.35;;;;;;;;;;2080997;28;20191;-61
2022/02/02 09:46:33;;;;;;;21.57;5.90;;;;;;;;;;2081014;28;20330;-59
2022/02/02 09:47:42;;;;;;;17.57;5.70;;;;;;;;;;2081746;28;20648;-59
2022/02/02 09:48:55;;;;;;;14.80;5.10;;;;;;;;;;2080643;28;20258;-60
2022/02/02 09:51:03;;;;;;;17.60;5.57;;;;;;;;;;2081318;28;20227;-59
2022/02/02 09:52:24;;;;;;;17.77;5.83;;;;;;;;;;2081801;28;20188;-61
2022/02/02 09:54:02;;;;;;;16.65;4.25;;;;;;;;;;2080733;28;20168;-58
2022/02/02 09:55:13;;;;;;;16.08;5.45;;;;;;;;;;2076032;28;20183;-59
2022/02/02 09:56:40;;;;;;;13.07;4.55;;;;;;;;;;2079862;28;20156;-61
2022/02/02 09:58:22;;;;;;;16.92;5.65;;;;;;;;;;2081596;28;20173;-61
2022/02/02 10:00:44;;;;;;;14.97;5.03;;;;;;;;;;2079610;28;20172;-62
2022/02/02 10:03:34;;;;;;;15.40;5.68;;;;;;;;;;2056676;28;20186;-60
2022/02/02 10:04:45;;;;;;;18.97;5.10;;;;;;;;;;2081367;28;20223;-57
2022/02/02 10:05:58;;;;;;;18.07;5.03;;;;;;;;;;2081038;28;20212;-61
2022/02/02 10:10:04;;;;;;;22.90;5.97;;;;;;;;;;2049981;28;20231;-59
2022/02/02 10:11:45;;;;;;;14.10;5.20;;;;;;;;;;2073303;28;20169;-56
2022/02/02 10:14:15;;;;;;;15.33;4.43;;;;;;;;;;2080784;28;20171;-59
2022/02/02 10:15:35;;;;;;;12.43;4.60;;;;;;;;;;2081705;28;20203;-60
2022/02/02 10:16:46;;;;;;;18.07;6.20;;;;;;;;;;2081309;28;20291;-57
2022/02/02 10:17:53;;;;;;;17.67;5.23;;;;;;;;;;2081341;28;20596;-59
2022/02/02 10:19:11;;;;;;;17.15;4.85;;;;;;;;;;2081200;28;20231;-59
2022/02/02 10:20:21;;;;;;;16.92;4.78;;;;;;;;;;2080027;28;20203;-57
2022/02/02 10:21:31;;;;;;;16.10;4.80;;;;;;;;;;2079686;28;20564;-60
2022/02/02 10:22:31;;;;;;;18.17;4.70;;;;;;;;;;2081194;28;20219;-59
2022/02/02 10:23:33;;;;;;;14.43;5.00;;;;;;;;;;2081797;28;20189;-61
2022/02/02 10:24:43;;;;;;;19.55;5.47;;;;;;;;;;2081443;28;20212;-60
2022/02/02 10:25:50;;;;;;;19.05;6.80;;;;;;;;;;2081038;28;20279;-58
2022/02/02 10:26:51;;;;;;;13.68;5.28;;;;;;;;;;2081622;28;20615;-59
2022/02/02 10:27:52;;;;;;;14.90;5.10;;;;;;;;;;2080761;28;20184;-59
2022/02/02 10:28:52;;;;;;;15.13;4.68;;;;;;;;;;2081524;28;20178;-58
2022/02/02 10:29:53;;;;;;;19.42;5.35;;;;;;;;;;2081474;28;20168;-61
2022/02/02 10:30:54;;;;;;;21.38;5.68;;;;;;;;;;2081550;28;20177;-59
2022/02/02 10:31:54;;;;;;;15.70;5.53;;;;;;;;;;2081712;28;20227;-56
2022/02/02 10:32:55;;;;;;;20.83;5.85;;;;;;;;;;2081510;28;20585;-57
2022/02/02 10:34:12;;;;;;;16.40;5.82;;;;;;;;;;2081460;28;20160;-60
2022/02/02 10:35:31;;;;;;;14.20;4.80;;;;;;;;;;2081921;28;20258;-59
2022/02/02 10:36:31;;;;;;;11.00;4.45;;;;;;;;;;2080871;28;20222;-60
2022/02/02 10:37:33;;;;;;;14.05;4.68;;;;;;;;;;2084863;28;20172;-57
2022/02/02 10:38:44;;;;;;;18.08;5.10;;;;;;;;;;2086439;28;20211;-58
2022/02/02 10:39:48;;;;;;;22.25;5.28;;;;;;;;;;2085200;28;20188;-55
2022/02/02 10:41:15;;;;;;;15.30;4.80;;;;;;;;;;2085728;28;20176;-54
2022/02/02 10:42:32;;;;;;;14.05;5.05;;;;;;;;;;2083053;28;20175;-57
2022/02/02 10:43:39;;;;;;;12.90;4.28;;;;;;;;;;2083561;28;20164;-54
2022/02/02 10:44:42;;;;;;;15.13;5.40;;;;;;;;;;2079200;28;20279;-54
2022/02/02 10:45:42;;;;;;;14.57;5.18;;;;;;;;;;2082783;28;20255;-57
2022/02/02 10:48:12;;;;;;;22.00;5.78;;;;;;;;;;2075624;28;20192;-61
2022/02/02 10:49:19;;;;;;;15.68;5.20;;;;;;;;;;2081268;28;20176;-60